sensor_id;sensor_type;location;lat;lon;timestamp;pressure;altitude;pressure_sealevel;temperature;humidity
23677;BME280;31493;49.058;12.190;2023-02-11T00:00:31;97915.16;;;-2.44;100.00
23677;BME280;31493;49.058;12.190;2023-02-11T00:02:59;97910.97;;;-2.39;100.00
23677;BME280;31493;49.058;12.190;2023-02-11T00:05:26;97909.28;;;-2.38;100.00
23677;BME280;31493;49.058;12.190;2023-02-11T00:07:54;97899.94;;;-2.42;100.00
23677;BME280;31493;49.058;12.190;2023-02-11T00:10:21;97900.56;;;-2.60;100.00
23677;BME280;31493;49.058;12.190;2023-02-11T00:12:49;97914.16;;;-2.55;100.00
23677;BME280;31493;49.058;12.190;2023-02-11T00:15:16;97906.59;;;-2.51;100.00
23677;BME280;31493;49.058;12.190;2023-02-11T00:17:43;97909.94;;;-2.55;100.00
23677;BME280;31493;49.058;12.190;2023-02-11T00:20:10;97906.59;;;-2.51;100.00
23677;BME280;31493;49.058;12.190;2023-02-11T00:22:37;97900.56;;;-2.60;100.00
23677;BME280;31493;49.058;12.190;2023-02-11T00:25:06;97910.84;;;-2.50;100.00
23677;BME280;31493;49.058;12.190;2023-02-11T00:27:33;97897.41;;;-2.39;100.00
23677;BME280;31493;49.058;12.190;2023-02-11T00:30:00;97897.41;;;-2.41;100.00
23677;BME280;31493;49.058;12.190;2023-02-11T00:32:27;97896.56;;;-2.41;100.00
23677;BME280;31493;49.058;12.190;2023-02-11T00:34:54;97904.25;;;-2.35;100.00
23677;BME280;31493;49.058;12.190;2023-02-11T00:37:21;97901.72;;;-2.34;100.00
23677;BME280;31493;49.058;12.190;2023-02-11T00:39:48;97889.78;;;-2.42;100.00
23677;BME280;31493;49.058;12.190;2023-02-11T00:42:17;97885.53;;;-2.45;100.00
23677;BME280;31493;49.058;12.190;2023-02-11T00:44:44;97892.00;;;-2.67;100.00
23677;BME280;31493;49.058;12.190;2023-02-11T00:47:11;97892.78;;;-2.74;100.00
23677;BME280;31493;49.058;12.190;2023-02-11T00:49:38;97885.94;;;-2.80;100.00
23677;BME280;31493;49.058;12.190;2023-02-11T00:52:06;97882.53;;;-2.82;100.00
23677;BME280;31493;49.058;12.190;2023-02-11T00:54:33;97882.63;;;-2.76;100.00
23677;BME280;31493;49.058;12.190;2023-02-11T00:57:00;97891.00;;;-2.80;100.00
23677;BME280;31493;49.058;12.190;2023-02-11T00:59:28;97894.31;;;-2.85;100.00
23677;BME280;31493;49.058;12.190;2023-02-11T01:01:55;97889.38;;;-2.76;100.00
23677;BME280;31493;49.058;12.190;2023-02-11T01:04:22;97884.31;;;-2.76;100.00
23677;BME280;31493;49.058;12.190;2023-02-11T01:06:49;97886.69;;;-2.88;100.00
23677;BME280;31493;49.058;12.190;2023-02-11T01:09:16;97889.22;;;-2.85;100.00
23677;BME280;31493;49.058;12.190;2023-02-11T01:11:46;97897.50;;;-2.97;100.00
23677;BME280;31493;49.058;12.190;2023-02-11T01:14:14;97899.09;;;-3.05;100.00
23677;BME280;31493;49.058;12.190;2023-02-11T01:16:42;97883.97;;;-3.01;100.00
23677;BME280;31493;49.058;12.190;2023-02-11T01:19:09;97883.97;;;-2.99;100.00
23677;BME280;31493;49.058;12.190;2023-02-11T01:21:36;97889.81;;;-3.05;100.00
23677;BME280;31493;49.058;12.190;2023-02-11T01:24:03;97893.03;;;-3.13;100.00
23677;BME280;31493;49.058;12.190;2023-02-11T01:26:30;97876.03;;;-3.23;100.00
23677;BME280;31493;49.058;12.190;2023-02-11T01:28:58;97881.97;;;-3.20;100.00
23677;BME280;31493;49.058;12.190;2023-02-11T01:31:25;97863.47;;;-3.16;100.00
23677;BME280;31493;49.058;12.190;2023-02-11T01:33:54;97860.91;;;-3.19;100.00
23677;BME280;31493;49.058;12.190;2023-02-11T01:36:21;97854.16;;;-3.18;100.00
23677;BME280;31493;49.058;12.190;2023-02-11T01:38:48;97868.63;;;-3.08;100.00
23677;BME280;31493;49.058;12.190;2023-02-11T01:41:15;97861.88;;;-3.09;100.00
23677;BME280;31493;49.058;12.190;2023-02-11T01:43:44;97852.56;;;-3.12;100.00
23677;BME280;31493;49.058;12.190;2023-02-11T01:46:31;97838.19;;;-3.11;100.00
23677;BME280;31493;49.058;12.190;2023-02-11T01:49:04;97839.88;;;-3.12;100.00
23677;BME280;31493;49.058;12.190;2023-02-11T01:51:34;97847.34;;;-3.19;100.00
23677;BME280;31493;49.058;12.190;2023-02-11T01:54:05;97826.03;;;-3.34;100.00
23677;BME280;31493;49.058;12.190;2023-02-11T01:56:52;97826.91;;;-3.32;100.00
23677;BME280;31493;49.058;12.190;2023-02-11T01:59:41;97811.88;;;-3.21;100.00
23677;BME280;31493;49.058;12.190;2023-02-11T02:02:13;97815.28;;;-3.19;100.00
23677;BME280;31493;49.058;12.190;2023-02-11T02:04:45;97812.75;;;-3.19;100.00
23677;BME280;31493;49.058;12.190;2023-02-11T02:07:20;97812.84;;;-3.13;100.00
23677;BME280;31493;49.058;12.190;2023-02-11T02:09:54;97818.63;;;-3.20;100.00
23677;BME280;31493;49.058;12.190;2023-02-11T02:12:23;97796.59;;;-3.26;100.00
23677;BME280;31493;49.058;12.190;2023-02-11T02:14:50;97809.25;;;-3.27;100.00
23677;BME280;31493;49.058;12.190;2023-02-11T02:17:27;97801.72;;;-3.22;100.00
23677;BME280;31493;49.058;12.190;2023-02-11T02:23:26;97797.44;;;-3.27;100.00
23677;BME280;31493;49.058;12.190;2023-02-11T02:26:18;97815.16;;;-3.27;100.00
23677;BME280;31493;49.058;12.190;2023-02-11T02:29:18;97819.31;;;-3.32;100.00
23677;BME280;31493;49.058;12.190;2023-02-11T02:32:23;97807.38;;;-3.39;100.00
23677;BME280;31493;49.058;12.190;2023-02-11T02:34:57;97810.84;;;-3.35;100.00
23677;BME280;31493;49.058;12.190;2023-02-11T02:37:31;97818.31;;;-3.43;100.00
23677;BME280;31493;49.058;12.190;2023-02-11T02:40:03;97826.03;;;-3.34;100.00
23677;BME280;31493;49.058;12.190;2023-02-11T02:42:34;97818.53;;;-3.28;100.00
23677;BME280;31493;49.058;12.190;2023-02-11T02:45:02;97829.66;;;-3.18;100.00
23677;BME280;31493;49.058;12.190;2023-02-11T02:47:31;97823.75;;;-3.18;100.00
23677;BME280;31493;49.058;12.190;2023-02-11T02:49:58;97817.03;;;-3.15;100.00
23677;BME280;31493;49.058;12.190;2023-02-11T02:52:32;97817.91;;;-3.13;100.00
23677;BME280;31493;49.058;12.190;2023-02-11T02:55:26;97810.34;;;-3.10;100.00
23677;BME280;31493;49.058;12.190;2023-02-11T02:58:18;97807.63;;;-3.23;100.00
23677;BME280;31493;49.058;12.190;2023-02-11T03:00:53;97804.94;;;-3.34;100.00
23677;BME280;31493;49.058;12.190;2023-02-11T03:03:28;97805.75;;;-3.37;100.00
23677;BME280;31493;49.058;12.190;2023-02-11T03:06:02;97810.00;;;-3.34;100.00
23677;BME280;31493;49.058;12.190;2023-02-11T03:08:33;97805.69;;;-3.41;100.00
23677;BME280;31493;49.058;12.190;2023-02-11T03:11:04;97803.91;;;-3.47;100.00
23677;BME280;31493;49.058;12.190;2023-02-11T03:13:33;97797.31;;;-3.36;100.00
23677;BME280;31493;49.058;12.190;2023-02-11T03:16:06;97796.41;;;-3.41;100.00
23677;BME280;31493;49.058;12.190;2023-02-11T03:18:38;97786.94;;;-3.53;100.00
23677;BME280;31493;49.058;12.190;2023-02-11T03:21:07;97787.97;;;-3.40;100.00
23677;BME280;31493;49.058;12.190;2023-02-11T03:23:36;97772.91;;;-3.31;100.00
23677;BME280;31493;49.058;12.190;2023-02-11T03:26:10;97775.47;;;-3.29;100.00
23677;BME280;31493;49.058;12.190;2023-02-11T03:28:42;97777.16;;;-3.27;100.00
23677;BME280;31493;49.058;12.190;2023-02-11T03:31:13;97783.22;;;-3.17;100.00
23677;BME280;31493;49.058;12.190;2023-02-11T03:33:51;97792.50;;;-3.19;100.00
23677;BME280;31493;49.058;12.190;2023-02-11T03:36:23;97789.13;;;-3.16;100.00
23677;BME280;31493;49.058;12.190;2023-02-11T03:38:56;97803.47;;;-3.18;100.00
23677;BME280;31493;49.058;12.190;2023-02-11T03:41:26;97810.22;;;-3.19;100.00
23677;BME280;31493;49.058;12.190;2023-02-11T03:43:55;97808.53;;;-3.18;100.00
23677;BME280;31493;49.058;12.190;2023-02-11T03:46:29;97797.56;;;-3.17;100.00
23677;BME280;31493;49.058;12.190;2023-02-11T03:49:03;97794.97;;;-3.22;100.00
23677;BME280;31493;49.058;12.190;2023-02-11T03:51:32;97791.63;;;-3.19;100.00
23677;BME280;31493;49.058;12.190;2023-02-11T03:54:02;97792.44;;;-3.20;100.00
23677;BME280;31493;49.058;12.190;2023-02-11T03:56:35;97793.38;;;-3.14;100.00
23677;BME280;31493;49.058;12.190;2023-02-11T03:59:04;97789.28;;;-3.06;100.00
23677;BME280;31493;49.058;12.190;2023-02-11T04:01:31;97800.22;;;-3.08;100.00
23677;BME280;31493;49.058;12.190;2023-02-11T04:03:59;97791.00;;;-3.05;100.00
23677;BME280;31493;49.058;12.190;2023-02-11T04:06:26;97793.44;;;-3.12;100.00
23677;BME280;31493;49.058;12.190;2023-02-11T04:08:53;97785.81;;;-3.12;100.00
23677;BME280;31493;49.058;12.190;2023-02-11T04:11:20;97775.63;;;-3.18;100.00
23677;BME280;31493;49.058;12.190;2023-02-11T04:13:48;97771.34;;;-3.21;100.00
23677;BME280;31493;49.058;12.190;2023-02-11T04:16:15;97788.16;;;-3.26;100.00
23677;BME280;31493;49.058;12.190;2023-02-11T04:18:42;97791.59;;;-3.21;100.00
23677;BME280;31493;49.058;12.190;2023-02-11T04:21:10;97792.44;;;-3.23;100.00
23677;BME280;31493;49.058;12.190;2023-02-11T04:23:37;97778.00;;;-3.28;100.00
23677;BME280;31493;49.058;12.190;2023-02-11T04:26:04;97766.25;;;-3.24;100.00
23677;BME280;31493;49.058;12.190;2023-02-11T04:28:31;97764.56;;;-3.22;100.00
23677;BME280;31493;49.058;12.190;2023-02-11T04:30:59;97755.25;;;-3.25;100.00
23677;BME280;31493;49.058;12.190;2023-02-11T04:33:26;97761.94;;;-3.30;100.00
23677;BME280;31493;49.058;12.190;2023-02-11T04:35:53;97755.28;;;-3.21;100.00
23677;BME280;31493;49.058;12.190;2023-02-11T04:38:22;97758.59;;;-3.27;100.00
23677;BME280;31493;49.058;12.190;2023-02-11T04:40:49;97760.44;;;-3.15;100.00
23677;BME280;31493;49.058;12.190;2023-02-11T04:43:16;97761.13;;;-3.26;100.00
23677;BME280;31493;49.058;12.190;2023-02-11T04:45:43;97760.28;;;-3.28;100.00
23677;BME280;31493;49.058;12.190;2023-02-11T04:48:10;97750.13;;;-3.29;100.00
23677;BME280;31493;49.058;12.190;2023-02-11T04:50:37;97752.66;;;-3.29;100.00
23677;BME280;31493;49.058;12.190;2023-02-11T04:53:04;97760.25;;;-3.29;100.00
23677;BME280;31493;49.058;12.190;2023-02-11T04:55:33;97761.94;;;-3.31;100.00
23677;BME280;31493;49.058;12.190;2023-02-11T04:58:00;97756.75;;;-3.39;100.00
23677;BME280;31493;49.058;12.190;2023-02-11T05:00:27;97744.22;;;-3.28;100.00
23677;BME280;31493;49.058;12.190;2023-02-11T05:02:54;97755.22;;;-3.26;100.00
23677;BME280;31493;49.058;12.190;2023-02-11T05:05:21;97757.75;;;-3.28;100.00
23677;BME280;31493;49.058;12.190;2023-02-11T05:07:48;97762.03;;;-3.25;100.00
23677;BME280;31493;49.058;12.190;2023-02-11T05:10:15;97758.59;;;-3.27;100.00
23677;BME280;31493;49.058;12.190;2023-02-11T05:12:43;97764.41;;;-3.33;100.00
23677;BME280;31493;49.058;12.190;2023-02-11T05:15:10;97770.38;;;-3.31;100.00
23677;BME280;31493;49.058;12.190;2023-02-11T05:17:37;97773.78;;;-3.29;100.00
23677;BME280;31493;49.058;12.190;2023-02-11T05:20:05;97780.53;;;-3.28;100.00
23677;BME280;31493;49.058;12.190;2023-02-11T05:22:32;97763.03;;;-3.12;100.00
23677;BME280;31493;49.058;12.190;2023-02-11T05:24:59;97768.06;;;-3.14;100.00
23677;BME280;31493;49.058;12.190;2023-02-11T05:27:26;97748.59;;;-3.18;100.00
23677;BME280;31493;49.058;12.190;2023-02-11T05:29:55;97746.03;;;-3.19;100.00
23677;BME280;31493;49.058;12.190;2023-02-11T05:32:22;97750.22;;;-3.21;100.00
23677;BME280;31493;49.058;12.190;2023-02-11T05:34:49;97746.84;;;-3.20;100.00
23677;BME280;31493;49.058;12.190;2023-02-11T05:37:16;97742.69;;;-3.18;100.00
23677;BME280;31493;49.058;12.190;2023-02-11T05:39:43;97742.63;;;-3.20;100.00
23677;BME280;31493;49.058;12.190;2023-02-11T05:42:10;97735.03;;;-3.21;100.00
23677;BME280;31493;49.058;12.190;2023-02-11T05:44:37;97730.81;;;-3.21;100.00
23677;BME280;31493;49.058;12.190;2023-02-11T05:47:06;97723.19;;;-3.24;100.00
23677;BME280;31493;49.058;12.190;2023-02-11T05:49:33;97728.28;;;-3.19;100.00
23677;BME280;31493;49.058;12.190;2023-02-11T05:52:00;97724.81;;;-3.26;100.00
23677;BME280;31493;49.058;12.190;2023-02-11T05:54:27;97731.63;;;-3.25;100.00
23677;BME280;31493;49.058;12.190;2023-02-11T05:56:54;97732.44;;;-3.26;100.00
23677;BME280;31493;49.058;12.190;2023-02-11T05:59:21;97725.59;;;-3.32;100.00
23677;BME280;31493;49.058;12.190;2023-02-11T06:01:48;97723.88;;;-3.34;100.00
23677;BME280;31493;49.058;12.190;2023-02-11T06:04:17;97723.81;;;-3.39;100.00
23677;BME280;31493;49.058;12.190;2023-02-11T06:06:44;97731.47;;;-3.36;100.00
23677;BME280;31493;49.058;12.190;2023-02-11T06:09:11;97730.63;;;-3.36;100.00
23677;BME280;31493;49.058;12.190;2023-02-11T06:11:38;97749.22;;;-3.34;100.00
23677;BME280;31493;49.058;12.190;2023-02-11T06:14:05;97736.53;;;-3.36;100.00
23677;BME280;31493;49.058;12.190;2023-02-11T06:16:32;97723.88;;;-3.34;100.00
23677;BME280;31493;49.058;12.190;2023-02-11T06:18:59;97712.94;;;-3.32;100.00
23677;BME280;31493;49.058;12.190;2023-02-11T06:21:27;97708.81;;;-3.25;100.00
23677;BME280;31493;49.058;12.190;2023-02-11T06:23:54;97716.44;;;-3.23;100.00
23677;BME280;31493;49.058;12.190;2023-02-11T06:26:22;97699.56;;;-3.21;100.00
23677;BME280;31493;49.058;12.190;2023-02-11T06:28:49;97713.91;;;-3.20;100.00
23677;BME280;31493;49.058;12.190;2023-02-11T06:31:17;97724.88;;;-3.25;100.00
23677;BME280;31493;49.058;12.190;2023-02-11T06:33:44;97721.59;;;-3.16;100.00
23677;BME280;31493;49.058;12.190;2023-02-11T06:36:13;97718.97;;;-3.25;100.00
23677;BME280;31493;49.058;12.190;2023-02-11T06:38:42;97726.56;;;-3.22;100.00
23677;BME280;31493;49.058;12.190;2023-02-11T06:41:10;97729.09;;;-3.23;100.00
23677;BME280;31493;49.058;12.190;2023-02-11T06:43:38;97751.91;;;-3.22;100.00
23677;BME280;31493;49.058;12.190;2023-02-11T06:46:06;97746.97;;;-3.13;100.00
23677;BME280;31493;49.058;12.190;2023-02-11T06:48:33;97748.66;;;-3.12;100.00
23677;BME280;31493;49.058;12.190;2023-02-11T06:51:01;97736.03;;;-3.07;100.00
23677;BME280;31493;49.058;12.190;2023-02-11T06:53:29;97735.19;;;-3.09;100.00
23677;BME280;31493;49.058;12.190;2023-02-11T06:56:02;97737.84;;;-2.99;100.00
23677;BME280;31493;49.058;12.190;2023-02-11T06:58:30;97736.22;;;-2.93;100.00
23677;BME280;31493;49.058;12.190;2023-02-11T07:00:57;97720.97;;;-2.95;100.00
23677;BME280;31493;49.058;12.190;2023-02-11T07:03:25;97714.19;;;-3.01;100.00
23677;BME280;31493;49.058;12.190;2023-02-11T07:05:52;97684.69;;;-2.92;100.00
23677;BME280;31493;49.058;12.190;2023-02-11T07:08:19;97704.19;;;-2.87;100.00
23677;BME280;31493;49.058;12.190;2023-02-11T07:10:46;97707.56;;;-2.86;100.00
23677;BME280;31493;49.058;12.190;2023-02-11T07:13:14;97717.84;;;-2.76;100.00
23677;BME280;31493;49.058;12.190;2023-02-11T07:15:41;97710.19;;;-2.79;100.00
23677;BME280;31493;49.058;12.190;2023-02-11T07:18:08;97705.06;;;-2.83;100.00
23677;BME280;31493;49.058;12.190;2023-02-11T07:20:35;97714.34;;;-2.84;100.00
23677;BME280;31493;49.058;12.190;2023-02-11T07:23:03;97717.84;;;-2.74;100.00
23677;BME280;31493;49.058;12.190;2023-02-11T07:25:30;97710.25;;;-2.71;100.00
23677;BME280;31493;49.058;12.190;2023-02-11T07:27:57;97727.19;;;-2.70;100.00
23677;BME280;31493;49.058;12.190;2023-02-11T07:30:26;97725.69;;;-2.51;100.00
23677;BME280;31493;49.058;12.190;2023-02-11T07:32:53;97706.16;;;-2.58;100.00
23677;BME280;31493;49.058;12.190;2023-02-11T07:35:21;97719.66;;;-2.62;100.00
23677;BME280;31493;49.058;12.190;2023-02-11T07:37:48;97722.25;;;-2.55;100.00
23677;BME280;31493;49.058;12.190;2023-02-11T07:40:16;97724.91;;;-2.42;100.00
23677;BME280;31493;49.058;12.190;2023-02-11T07:42:43;97726.69;;;-2.35;100.00
23677;BME280;31493;49.058;12.190;2023-02-11T07:45:10;97727.56;;;-2.29;100.00
23677;BME280;31493;49.058;12.190;2023-02-11T07:47:39;97731.88;;;-2.22;100.00
23677;BME280;31493;49.058;12.190;2023-02-11T07:50:07;97741.25;;;-2.13;100.00
23677;BME280;31493;49.058;12.190;2023-02-11T07:52:34;97737.84;;;-2.17;100.00
23677;BME280;31493;49.058;12.190;2023-02-11T07:55:01;97739.41;;;-2.28;100.00
23677;BME280;31493;49.058;12.190;2023-02-11T07:57:28;97741.09;;;-2.28;100.00
23677;BME280;31493;49.058;12.190;2023-02-11T07:59:55;97747.09;;;-2.22;100.00
23677;BME280;31493;49.058;12.190;2023-02-11T08:02:22;97745.50;;;-2.10;100.00
23677;BME280;31493;49.058;12.190;2023-02-11T08:04:50;97734.59;;;-2.00;100.00
23677;BME280;31493;49.058;12.190;2023-02-11T08:07:18;97748.03;;;-2.10;100.00
23677;BME280;31493;49.058;12.190;2023-02-11T08:09:45;97749.78;;;-2.06;100.00
23677;BME280;31493;49.058;12.190;2023-02-11T08:12:12;97739.63;;;-2.03;100.00
23677;BME280;31493;49.058;12.190;2023-02-11T08:14:39;97742.25;;;-1.96;100.00
23677;BME280;31493;49.058;12.190;2023-02-11T08:17:06;97740.56;;;-1.91;100.00
23677;BME280;31493;49.058;12.190;2023-02-11T08:19:33;97738.91;;;-1.88;100.00
23677;BME280;31493;49.058;12.190;2023-02-11T08:22:02;97731.31;;;-1.90;100.00
23677;BME280;31493;49.058;12.190;2023-02-11T08:24:29;97734.66;;;-1.91;100.00
23677;BME280;31493;49.058;12.190;2023-02-11T08:26:56;97734.66;;;-1.93;100.00
23677;BME280;31493;49.058;12.190;2023-02-11T08:29:23;97727.16;;;-1.73;100.00
23677;BME280;31493;49.058;12.190;2023-02-11T08:31:50;97743.28;;;-1.68;100.00
23677;BME280;31493;49.058;12.190;2023-02-11T08:34:17;97739.91;;;-1.71;100.00
23677;BME280;31493;49.058;12.190;2023-02-11T08:36:45;97753.50;;;-1.62;100.00
23677;BME280;31493;49.058;12.190;2023-02-11T08:39:15;97767.06;;;-1.56;100.00
23677;BME280;31493;49.058;12.190;2023-02-11T08:41:43;97770.56;;;-1.42;100.00
23677;BME280;31493;49.058;12.190;2023-02-11T08:44:10;97763.81;;;-1.37;100.00
23677;BME280;31493;49.058;12.190;2023-02-11T08:46:38;97763.88;;;-1.26;100.00
23677;BME280;31493;49.058;12.190;2023-02-11T08:49:05;97769.88;;;-1.11;100.00
23677;BME280;31493;49.058;12.190;2023-02-11T08:51:32;97768.25;;;-1.01;100.00
23677;BME280;31493;49.058;12.190;2023-02-11T08:53:59;97769.16;;;-0.91;100.00
23677;BME280;31493;49.058;12.190;2023-02-11T08:56:28;97753.91;;;-0.85;100.00
23677;BME280;31493;49.058;12.190;2023-02-11T08:58:56;97763.25;;;-0.83;100.00
23677;BME280;31493;49.058;12.190;2023-02-11T09:01:24;97759.00;;;-0.82;100.00
23677;BME280;31493;49.058;12.190;2023-02-11T09:03:52;97749.66;;;-0.91;100.00
23677;BME280;31493;49.058;12.190;2023-02-11T09:06:21;97759.78;;;-0.92;100.00
23677;BME280;31493;49.058;12.190;2023-02-11T09:08:50;97749.59;;;-1.03;100.00
23677;BME280;31493;49.058;12.190;2023-02-11T09:11:20;97755.53;;;-1.04;100.00
23677;BME280;31493;49.058;12.190;2023-02-11T09:13:48;97751.28;;;-1.10;100.00
23677;BME280;31493;49.058;12.190;2023-02-11T09:16:18;97746.19;;;-1.08;100.00
23677;BME280;31493;49.058;12.190;2023-02-11T09:18:46;97758.88;;;-1.16;100.00
23677;BME280;31493;49.058;12.190;2023-02-11T09:21:15;97758.75;;;-1.29;100.00
23677;BME280;31493;49.058;12.190;2023-02-11T09:23:43;97749.41;;;-1.37;100.00
23677;BME280;31493;49.058;12.190;2023-02-11T09:26:14;97751.19;;;-1.28;100.00
23677;BME280;31493;49.058;12.190;2023-02-11T09:28:41;97747.78;;;-1.24;100.00
23677;BME280;31493;49.058;12.190;2023-02-11T09:31:11;97752.91;;;-1.19;100.00
23677;BME280;31493;49.058;12.190;2023-02-11T09:33:42;97759.72;;;-1.14;100.00
23677;BME280;31493;49.058;12.190;2023-02-11T09:36:13;97761.38;;;-1.17;100.00
23677;BME280;31493;49.058;12.190;2023-02-11T09:38:40;97750.34;;;-1.18;100.00
23677;BME280;31493;49.058;12.190;2023-02-11T09:41:26;97746.13;;;-1.19;100.00
23677;BME280;31493;49.058;12.190;2023-02-11T09:44:01;97741.03;;;-1.22;100.00
23677;BME280;31493;49.058;12.190;2023-02-11T09:46:33;97741.00;;;-1.23;100.00
23677;BME280;31493;49.058;12.190;2023-02-11T09:49:01;97744.44;;;-1.18;100.00
23677;BME280;31493;49.058;12.190;2023-02-11T09:51:34;97735.13;;;-1.13;100.00
23677;BME280;31493;49.058;12.190;2023-02-11T09:54:09;97740.22;;;-1.15;100.00
23677;BME280;31493;49.058;12.190;2023-02-11T09:56:38;97748.72;;;-1.10;100.00
23677;BME280;31493;49.058;12.190;2023-02-11T09:59:09;97736.88;;;-1.09;100.00
23677;BME280;31493;49.058;12.190;2023-02-11T10:01:41;97754.63;;;-1.11;100.00
23677;BME280;31493;49.058;12.190;2023-02-11T10:04:18;97757.13;;;-1.17;100.00
23677;BME280;31493;49.058;12.190;2023-02-11T10:06:52;97757.19;;;-1.04;100.00
23677;BME280;31493;49.058;12.190;2023-02-11T10:09:27;97758.94;;;-0.96;100.00
23677;BME280;31493;49.058;12.190;2023-02-11T10:12:08;97754.69;;;-0.98;100.00
23677;BME280;31493;49.058;12.190;2023-02-11T10:14:48;97761.47;;;-1.03;100.00
23677;BME280;31493;49.058;12.190;2023-02-11T10:17:25;97752.16;;;-1.01;100.00
23677;BME280;31493;49.058;12.190;2023-02-11T10:20:06;97766.59;;;-0.90;100.00
23677;BME280;31493;49.058;12.190;2023-02-11T10:22:37;97739.53;;;-0.68;100.00
23677;BME280;31493;49.058;12.190;2023-02-11T10:25:17;97736.19;;;-0.58;100.00
23677;BME280;31493;49.058;12.190;2023-02-11T10:27:46;97746.38;;;-0.58;100.00
23677;BME280;31493;49.058;12.190;2023-02-11T10:30:21;97744.69;;;-0.52;100.00
23677;BME280;31493;49.058;12.190;2023-02-11T10:32:54;97741.31;;;-0.39;100.00
23677;BME280;31493;49.058;12.190;2023-02-11T10:35:24;97736.22;;;-0.48;100.00
23677;BME280;31493;49.058;12.190;2023-02-11T10:37:52;97729.41;;;-0.43;100.00
23677;BME280;31493;49.058;12.190;2023-02-11T10:40:22;97732.84;;;-0.43;100.00
23677;BME280;31493;49.058;12.190;2023-02-11T10:42:51;97734.50;;;-0.49;100.00
23677;BME280;31493;49.058;12.190;2023-02-11T10:45:24;97725.22;;;-0.41;100.00
23677;BME280;31493;49.058;12.190;2023-02-11T10:47:54;97727.78;;;-0.29;100.00
23677;BME280;31493;49.058;12.190;2023-02-11T10:50:26;97721.81;;;-0.28;100.00
23677;BME280;31493;49.058;12.190;2023-02-11T10:53:10;97734.56;;;-0.23;100.00
23677;BME280;31493;49.058;12.190;2023-02-11T10:55:37;97725.22;;;-0.23;100.00
23677;BME280;31493;49.058;12.190;2023-02-11T10:58:05;97720.13;;;-0.29;100.00
23677;BME280;31493;49.058;12.190;2023-02-11T11:00:34;97720.13;;;-0.28;100.00
23677;BME280;31493;49.058;12.190;2023-02-11T11:03:15;97725.22;;;-0.21;100.00
23677;BME280;31493;49.058;12.190;2023-02-11T11:05:48;97705.72;;;-0.16;100.00
23677;BME280;31493;49.058;12.190;2023-02-11T11:08:17;97707.41;;;-0.20;100.00
23677;BME280;31493;49.058;12.190;2023-02-11T11:10:45;97712.53;;;-0.12;100.00
23677;BME280;31493;49.058;12.190;2023-02-11T11:13:24;97699.78;;;-0.12;100.00
23677;BME280;31493;49.058;12.190;2023-02-11T11:18:39;97691.28;;;-0.17;100.00
23677;BME280;31493;49.058;12.190;2023-02-11T11:21:12;97702.31;;;-0.11;100.00
23677;BME280;31493;49.058;12.190;2023-02-11T11:23:46;97714.19;;;-0.01;100.00
23677;BME280;31493;49.058;12.190;2023-02-11T11:26:15;97710.81;;;0.04;99.99
23677;BME280;31493;49.058;12.190;2023-02-11T11:28:52;97719.28;;;0.03;100.00
23677;BME280;31493;49.058;12.190;2023-02-11T11:31:21;97717.59;;;0.03;100.00
23677;BME280;31493;49.058;12.190;2023-02-11T11:33:55;97716.75;;;-0.02;100.00
23677;BME280;31493;49.058;12.190;2023-02-11T11:36:31;97704.88;;;-0.09;100.00
23677;BME280;31493;49.058;12.190;2023-02-11T11:39:01;97705.69;;;0.11;100.00
23677;BME280;31493;49.058;12.190;2023-02-11T11:41:32;97696.38;;;0.13;100.00
23677;BME280;31493;49.058;12.190;2023-02-11T11:44:19;97687.00;;;0.18;100.00
23677;BME280;31493;49.058;12.190;2023-02-11T11:46:52;97681.06;;;0.18;100.00
23677;BME280;31493;49.058;12.190;2023-02-11T11:49:33;97681.91;;;0.31;100.00
23677;BME280;31493;49.058;12.190;2023-02-11T11:52:10;97671.72;;;0.35;99.93
23677;BME280;31493;49.058;12.190;2023-02-11T11:54:44;97681.06;;;0.35;99.99
23677;BME280;31493;49.058;12.190;2023-02-11T11:57:19;97671.66;;;0.53;100.00
23677;BME280;31493;49.058;12.190;2023-02-11T11:59:47;97675.06;;;0.56;99.64
23677;BME280;31493;49.058;12.190;2023-02-11T12:02:34;97690.31;;;0.69;98.79
23677;BME280;31493;49.058;12.190;2023-02-11T12:05:12;97679.22;;;0.79;98.35
23677;BME280;31493;49.058;12.190;2023-02-11T12:07:51;97689.34;;;0.98;97.22
23677;BME280;31493;49.058;12.190;2023-02-11T12:10:36;97673.22;;;0.96;97.25
23677;BME280;31493;49.058;12.190;2023-02-11T12:13:17;97672.31;;;1.03;98.02
23677;BME280;31493;49.058;12.190;2023-02-11T12:15:56;97672.31;;;1.07;97.00
23677;BME280;31493;49.058;12.190;2023-02-11T12:18:48;97669.59;;;1.37;96.94
23677;BME280;31493;49.058;12.190;2023-02-11T12:21:27;97661.59;;;1.84;95.05
23677;BME280;31493;49.058;12.190;2023-02-11T12:24:07;97663.06;;;2.12;93.47
23677;BME280;31493;49.058;12.190;2023-02-11T12:26:43;97665.03;;;2.69;93.07
23677;BME280;31493;49.058;12.190;2023-02-11T12:29:20;97657.50;;;2.55;90.48
23677;BME280;31493;49.058;12.190;2023-02-11T12:32:04;97647.31;;;2.54;90.53
23677;BME280;31493;49.058;12.190;2023-02-11T12:34:54;97660.81;;;2.66;89.75
23677;BME280;31493;49.058;12.190;2023-02-11T12:37:39;97640.84;;;2.19;90.53
23677;BME280;31493;49.058;12.190;2023-02-11T12:40:14;97629.06;;;2.06;91.96
23677;BME280;31493;49.058;12.190;2023-02-11T12:42:52;97621.63;;;1.80;92.65
23677;BME280;31493;49.058;12.190;2023-02-11T12:45:57;97640.41;;;1.74;92.33
23677;BME280;31493;49.058;12.190;2023-02-11T12:51:23;97643.84;;;1.69;92.72
23677;BME280;31493;49.058;12.190;2023-02-11T12:54:18;97636.22;;;1.64;93.08
23677;BME280;31493;49.058;12.190;2023-02-11T12:56:51;97620.16;;;1.50;93.54
23677;BME280;31493;49.058;12.190;2023-02-11T12:59:31;97627.94;;;1.31;94.53
23677;BME280;31493;49.058;12.190;2023-02-11T13:02:03;97615.25;;;1.24;95.12
23677;BME280;31493;49.058;12.190;2023-02-11T13:04:34;97628.78;;;1.32;94.92
23677;BME280;31493;49.058;12.190;2023-02-11T13:07:07;97628.84;;;1.29;94.83
23677;BME280;31493;49.058;12.190;2023-02-11T13:09:42;97624.50;;;1.39;95.24